Gazpromneft East — UBOF4 — position and weather

sailwx.info

Track history (hours):
 
Tides and Currents Weather Stations Pressure Air Temp Water Temp Dewpoint Dewpoint Depression Visibility Wind Speed Wind Dir Waves Ship Positions

Gazpromneft East

Last reported at 2016-Feb-13 08:26 UTC. Time now 2016-Feb-13 08:47 UTC.
Position N 59°55' E 028°39'.

Length 79 m; draft 5.1 m.

Type: Ship (hazmat cat B). MMSI: 273335320.

Date/timePositionNaut miles runAvg speedWind from/ knotsBaromVisibWave heightAir tempDewpointWater temp
2016-Feb-13 08:26N 59°55' E 028°39'0 0.0
2016-Feb-13 07:29N 59°55' E 028°39'0 0.0
2016-Feb-13 06:14N 59°55' E 028°39'0 0.0
2016-Feb-13 05:29N 59°55' E 028°39'0 0.0
2016-Feb-13 04:32N 59°55' E 028°39'0 0.0
2016-Feb-13 03:29N 59°55' E 028°39'0 0.0
2016-Feb-13 02:32N 59°55' E 028°39'0 0.0
2016-Feb-13 01:32N 59°55' E 028°39'0 0.0
2016-Feb-13 00:32N 59°55' E 028°39'0 0.0
2016-Feb-12 23:32N 59°55' E 028°39'0 0.0
2016-Feb-12 22:23N 59°55' E 028°39'0 0.0
2016-Feb-12 21:23N 59°55' E 028°39'0 0.0
2016-Feb-12 20:26N 59°55' E 028°39'0 0.0
2016-Feb-12 19:26N 59°55' E 028°39'0 0.0
2016-Feb-12 18:23N 59°55' E 028°39'0 0.0
2016-Feb-12 17:29N 59°55' E 028°39'0 0.0
2016-Feb-12 16:29N 59°55' E 028°39'0 0.0
2016-Feb-12 15:32N 59°55' E 028°39'0 0.0
2016-Feb-12 14:32N 59°55' E 028°39'0 0.0
2016-Feb-12 13:32N 59°55' E 028°39'0 0.0
2016-Feb-12 12:32N 59°55' E 028°39'0 0.0
2016-Feb-12 11:32N 59°55' E 028°39'0 0.0
2016-Feb-12 10:20N 59°55' E 028°39'0 0.0
2016-Feb-12 09:32N 59°55' E 028°39'0 0.0
2016-Feb-12 08:32N 59°55' E 028°39'0 0.0
2016-Feb-12 07:23N 59°55' E 028°39'0 0.0
2016-Feb-12 06:26N 59°55' E 028°39'0 0.0
2016-Feb-12 05:26N 59°55' E 028°39'0 0.0
2016-Feb-12 04:26N 59°55' E 028°39'0 0.0
2016-Feb-12 03:26N 59°55' E 028°39'0 0.0
2016-Feb-12 02:14N 59°55' E 028°39'0 0.0
2016-Feb-12 01:26N 59°55' E 028°39'0 0.0
2016-Feb-12 00:32N 59°55' E 028°39'0 0.0
2016-Feb-11 23:32N 59°55' E 028°39'0 0.0
2016-Feb-11 22:32N 59°55' E 028°39'0 0.0
2016-Feb-11 21:32N 59°55' E 028°39'0 0.0
2016-Feb-11 20:32N 59°55' E 028°39'0 0.0
2016-Feb-11 19:32N 59°55' E 028°39'0 0.0
2016-Feb-11 18:32N 59°55' E 028°39'0 0.0
2016-Feb-11 17:23N 59°55' E 028°39'0 0.0
2016-Feb-11 16:20N 59°55' E 028°39'0 0.0
2016-Feb-11 15:26N 59°55' E 028°39'0 0.0
2016-Feb-11 14:14N 59°55' E 028°39'0 0.0
2016-Feb-11 13:29N 59°55' E 028°39'0 0.0
2016-Feb-11 12:29N 59°55' E 028°39'0 0.0
2016-Feb-11 11:26N 59°55' E 028°39'0 0.0
2016-Feb-11 10:32N 59°55' E 028°39'9 9.1
2016-Feb-11 09:33N 59°59' E 028°55'21 9.8
2016-Feb-11 07:23N 60°00' E 029°37'6 7.4
2016-Feb-11 06:32N 59°56' E 029°47'1 0.1
2016-Feb-10 06:33N 59°58' E 029°47'22 1.6
2016-Feb-09 16:28N 60°02' E 029°04'9 9.7
2016-Feb-09 15:31N 60°07' E 028°50'5 0.1
2016-Feb-07 19:27N 60°12' E 028°45'8 8.5
2016-Feb-07 18:33N 60°05' E 028°53'28 8.9
2016-Feb-07 15:24N 59°58' E 029°47'1 0.3
2016-Feb-07 10:32N 59°57' E 029°47'8 8.4
2016-Feb-07 09:33N 59°55' E 030°03'6 5.6
2016-Feb-07 08:34N 59°53' E 030°14'0 0.0
2016-Feb-07 07:33N 59°53' E 030°14'0 0.0
2016-Feb-07 06:34N 59°53' E 030°14'0 0.0
2016-Feb-07 05:33N 59°53' E 030°14'0 0.0
2016-Feb-07 04:33N 59°53' E 030°14'0 0.0
2016-Feb-07 03:33N 59°53' E 030°14'0 0.0
2016-Feb-07 02:33N 59°53' E 030°14'0 0.0
2016-Feb-07 01:33N 59°53' E 030°14'0 0.0
2016-Feb-07 00:33N 59°53' E 030°14'0 0.0
2016-Feb-06 23:33N 59°53' E 030°14'0 0.0
2016-Feb-06 22:33N 59°53' E 030°14'0 0.0
2016-Feb-06 21:33N 59°53' E 030°14'1 0.8
2016-Feb-06 20:33N 59°53' E 030°12'0 0.0
2016-Feb-06 19:34N 59°53' E 030°12'0 0.0
2016-Feb-06 18:33N 59°53' E 030°12'0 0.0
2016-Feb-06 17:33N 59°53' E 030°12'0 0.0
2016-Feb-06 16:33N 59°53' E 030°12'1 0.6
2016-Feb-06 15:33N 59°53' E 030°13'0 0.1
2016-Feb-06 14:33N 59°53' E 030°14'0 0.0
2016-Feb-06 13:33N 59°53' E 030°14'0 0.0
2016-Feb-06 12:34N 59°53' E 030°14'0 0.0
2016-Feb-06 11:33N 59°53' E 030°14'0 0.0
2016-Feb-06 10:33N 59°53' E 030°14'0 0.0
2016-Feb-06 09:33N 59°53' E 030°14'0 0.0
2016-Feb-06 08:33N 59°53' E 030°14'0 0.2
2016-Feb-06 07:33N 59°53' E 030°13'1 0.6
2016-Feb-06 06:33N 59°53' E 030°12'1 1.1
2016-Feb-06 05:33N 59°52' E 030°13'0 0.0
2016-Feb-06 04:34N 59°52' E 030°13'0 0.0
2016-Feb-06 03:34N 59°52' E 030°13'0 0.0
2016-Feb-06 02:33N 59°52' E 030°13'0 0.0
2016-Feb-06 01:33N 59°52' E 030°13'0 0.0
2016-Feb-06 00:33N 59°52' E 030°13'0 0.2
2016-Feb-05 23:33N 59°52' E 030°12'0 0.3
2016-Feb-05 22:34N 59°52' E 030°12'0 0.0
2016-Feb-05 21:34N 59°52' E 030°12'0 0.0
2016-Feb-05 20:33N 59°52' E 030°12'0 0.0
2016-Feb-05 19:34N 59°52' E 030°12'0 0.0
2016-Feb-05 18:33N 59°52' E 030°12'0 0.0
2016-Feb-05 17:33N 59°52' E 030°12'0 0.0
2016-Feb-05 16:33N 59°52' E 030°12'1 0.7
2016-Feb-05 15:33N 59°53' E 030°11'0 0.0
2016-Feb-05 14:33N 59°53' E 030°11'0 0.0
2016-Feb-05 13:33N 59°53' E 030°11'0 0.0
2016-Feb-05 12:33N 59°53' E 030°11'0 0.0
2016-Feb-05 11:33N 59°53' E 030°11'0 0.0
2016-Feb-05 10:33N 59°53' E 030°11'1 0.6
2016-Feb-05 09:33N 59°53' E 030°12'1 0.8
2016-Feb-05 08:34N 59°53' E 030°14'0 0.0
2016-Feb-05 07:34N 59°53' E 030°14'0 0.0
2016-Feb-05 06:34N 59°53' E 030°14'0 0.0
2016-Feb-05 05:34N 59°53' E 030°14'0 0.0
2016-Feb-05 04:33N 59°53' E 030°14'0 0.0
2016-Feb-05 03:33N 59°53' E 030°14'0 0.0
2016-Feb-05 02:33N 59°53' E 030°14'0 0.0
2016-Feb-05 01:33N 59°53' E 030°14'0 0.0
2016-Feb-05 00:33N 59°53' E 030°14'0 0.1
2016-Feb-04 23:33N 59°53' E 030°13'0 0.0
2016-Feb-04 22:33N 59°53' E 030°13'0 0.0
2016-Feb-04 21:33N 59°53' E 030°13'0 0.0
2016-Feb-04 20:33N 59°53' E 030°13'0 0.0
2016-Feb-04 19:33N 59°53' E 030°13'1 1.0
2016-Feb-04 18:34N 59°53' E 030°11'0 0.0
2016-Feb-04 17:33N 59°53' E 030°11'0 0.0
2016-Feb-04 16:33N 59°53' E 030°11'0 0.0
2016-Feb-04 15:33N 59°53' E 030°11'0 0.0
2016-Feb-04 14:33N 59°53' E 030°11'0 0.0
2016-Feb-04 13:34N 59°53' E 030°11'0 0.0
2016-Feb-04 12:33N 59°53' E 030°11'0 0.0
2016-Feb-04 11:33N 59°53' E 030°11'1 1.0
2016-Feb-04 10:33N 59°53' E 030°13'0 0.0
2016-Feb-04 09:33N 59°53' E 030°13'0 0.0
2016-Feb-04 08:33N 59°53' E 030°13'0 0.0
2016-Feb-04 07:33N 59°53' E 030°13'0 0.0
2016-Feb-04 06:34N 59°53' E 030°13'0 0.0
2016-Feb-04 05:33N 59°53' E 030°13'0 0.0
2016-Feb-04 04:33N 59°53' E 030°13'0 0.0
2016-Feb-04 03:33N 59°53' E 030°13'0 0.0
2016-Feb-04 02:33N 59°53' E 030°13'0 0.0
2016-Feb-04 01:33N 59°53' E 030°13'0 0.0
2016-Feb-04 00:34N 59°53' E 030°13'0 0.1
2016-Feb-03 23:34N 59°53' E 030°14'0 0.0
2016-Feb-03 22:34N 59°53' E 030°14'0 0.0
2016-Feb-03 21:33N 59°53' E 030°14'0 0.0
2016-Feb-03 20:33N 59°53' E 030°14'1 0.9
2016-Feb-03 19:34N 59°53' E 030°12'0 0.0
2016-Feb-03 18:33N 59°53' E 030°12'0 0.0
2016-Feb-03 17:33N 59°53' E 030°12'0 0.0
2016-Feb-03 16:33N 59°53' E 030°12'1 0.5
2016-Feb-03 15:33N 59°53' E 030°13'0 0.3
2016-Feb-03 14:33N 59°54' E 030°13'0 0.0
2016-Feb-03 13:33N 59°54' E 030°13'0 0.0
2016-Feb-03 12:33N 59°54' E 030°13'0 0.0
2016-Feb-03 11:33N 59°54' E 030°13'0 0.0
2016-Feb-03 10:34N 59°54' E 030°13'0 0.2
2016-Feb-03 09:33N 59°53' E 030°13'0 0.4
2016-Feb-03 08:33N 59°53' E 030°13'  
Track history (hours):
 
Tides and Currents Weather Stations Pressure Air Temp Water Temp Dewpoint Dewpoint Depression Visibility Wind Speed Wind Dir Waves Ship Positions

Gazpromneft East

Last reported at 2016-Feb-13 08:26 UTC. Time now 2016-Feb-13 08:47 UTC.
Position N 59°55' E 028°39'.

Length 79 m; draft 5.1 m.

Type: Ship (hazmat cat B). MMSI: 273335320.

Date/timePositionNaut miles runAvg speedWind from/ knotsBaromVisibWave heightAir tempDewpointWater temp
2016-Feb-13 08:26N 59°55' E 028°39'0 0.0
2016-Feb-13 07:29N 59°55' E 028°39'0 0.0
2016-Feb-13 06:14N 59°55' E 028°39'0 0.0
2016-Feb-13 05:29N 59°55' E 028°39'0 0.0
2016-Feb-13 04:32N 59°55' E 028°39'0 0.0
2016-Feb-13 03:29N 59°55' E 028°39'0 0.0
2016-Feb-13 02:32N 59°55' E 028°39'0 0.0
2016-Feb-13 01:32N 59°55' E 028°39'0 0.0
2016-Feb-13 00:32N 59°55' E 028°39'0 0.0
2016-Feb-12 23:32N 59°55' E 028°39'0 0.0
2016-Feb-12 22:23N 59°55' E 028°39'0 0.0
2016-Feb-12 21:23N 59°55' E 028°39'0 0.0
2016-Feb-12 20:26N 59°55' E 028°39'0 0.0
2016-Feb-12 19:26N 59°55' E 028°39'0 0.0
2016-Feb-12 18:23N 59°55' E 028°39'0 0.0
2016-Feb-12 17:29N 59°55' E 028°39'0 0.0
2016-Feb-12 16:29N 59°55' E 028°39'0 0.0
2016-Feb-12 15:32N 59°55' E 028°39'0 0.0
2016-Feb-12 14:32N 59°55' E 028°39'0 0.0
2016-Feb-12 13:32N 59°55' E 028°39'0 0.0
2016-Feb-12 12:32N 59°55' E 028°39'0 0.0
2016-Feb-12 11:32N 59°55' E 028°39'0 0.0
2016-Feb-12 10:20N 59°55' E 028°39'0 0.0
2016-Feb-12 09:32N 59°55' E 028°39'0 0.0
2016-Feb-12 08:32N 59°55' E 028°39'0 0.0
2016-Feb-12 07:23N 59°55' E 028°39'0 0.0
2016-Feb-12 06:26N 59°55' E 028°39'0 0.0
2016-Feb-12 05:26N 59°55' E 028°39'0 0.0
2016-Feb-12 04:26N 59°55' E 028°39'0 0.0
2016-Feb-12 03:26N 59°55' E 028°39'0 0.0
2016-Feb-12 02:14N 59°55' E 028°39'0 0.0
2016-Feb-12 01:26N 59°55' E 028°39'0 0.0
2016-Feb-12 00:32N 59°55' E 028°39'0 0.0
2016-Feb-11 23:32N 59°55' E 028°39'0 0.0
2016-Feb-11 22:32N 59°55' E 028°39'0 0.0
2016-Feb-11 21:32N 59°55' E 028°39'0 0.0
2016-Feb-11 20:32N 59°55' E 028°39'0 0.0
2016-Feb-11 19:32N 59°55' E 028°39'0 0.0
2016-Feb-11 18:32N 59°55' E 028°39'0 0.0
2016-Feb-11 17:23N 59°55' E 028°39'0 0.0
2016-Feb-11 16:20N 59°55' E 028°39'0 0.0
2016-Feb-11 15:26N 59°55' E 028°39'0 0.0
2016-Feb-11 14:14N 59°55' E 028°39'0 0.0
2016-Feb-11 13:29N 59°55' E 028°39'0 0.0
2016-Feb-11 12:29N 59°55' E 028°39'0 0.0
2016-Feb-11 11:26N 59°55' E 028°39'0 0.0
2016-Feb-11 10:32N 59°55' E 028°39'9 9.1
2016-Feb-11 09:33N 59°59' E 028°55'21 9.8
2016-Feb-11 07:23N 60°00' E 029°37'6 7.4
2016-Feb-11 06:32N 59°56' E 029°47'1 0.1
2016-Feb-10 06:33N 59°58' E 029°47'22 1.6
2016-Feb-09 16:28N 60°02' E 029°04'9 9.7
2016-Feb-09 15:31N 60°07' E 028°50'5 0.1
2016-Feb-07 19:27N 60°12' E 028°45'8 8.5
2016-Feb-07 18:33N 60°05' E 028°53'28 8.9
2016-Feb-07 15:24N 59°58' E 029°47'1 0.3
2016-Feb-07 10:32N 59°57' E 029°47'8 8.4
2016-Feb-07 09:33N 59°55' E 030°03'6 5.6
2016-Feb-07 08:34N 59°53' E 030°14'0 0.0
2016-Feb-07 07:33N 59°53' E 030°14'0 0.0
2016-Feb-07 06:34N 59°53' E 030°14'0 0.0
2016-Feb-07 05:33N 59°53' E 030°14'0 0.0
2016-Feb-07 04:33N 59°53' E 030°14'0 0.0
2016-Feb-07 03:33N 59°53' E 030°14'0 0.0
2016-Feb-07 02:33N 59°53' E 030°14'0 0.0
2016-Feb-07 01:33N 59°53' E 030°14'0 0.0
2016-Feb-07 00:33N 59°53' E 030°14'0 0.0
2016-Feb-06 23:33N 59°53' E 030°14'0 0.0
2016-Feb-06 22:33N 59°53' E 030°14'0 0.0
2016-Feb-06 21:33N 59°53' E 030°14'1 0.8
2016-Feb-06 20:33N 59°53' E 030°12'0 0.0
2016-Feb-06 19:34N 59°53' E 030°12'0 0.0
2016-Feb-06 18:33N 59°53' E 030°12'0 0.0
2016-Feb-06 17:33N 59°53' E 030°12'0 0.0
2016-Feb-06 16:33N 59°53' E 030°12'1 0.6
2016-Feb-06 15:33N 59°53' E 030°13'0 0.1
2016-Feb-06 14:33N 59°53' E 030°14'0 0.0
2016-Feb-06 13:33N 59°53' E 030°14'0 0.0
2016-Feb-06 12:34N 59°53' E 030°14'0 0.0
2016-Feb-06 11:33N 59°53' E 030°14'0 0.0
2016-Feb-06 10:33N 59°53' E 030°14'0 0.0
2016-Feb-06 09:33N 59°53' E 030°14'0 0.0
2016-Feb-06 08:33N 59°53' E 030°14'0 0.2
2016-Feb-06 07:33N 59°53' E 030°13'1 0.6
2016-Feb-06 06:33N 59°53' E 030°12'1 1.1
2016-Feb-06 05:33N 59°52' E 030°13'0 0.0
2016-Feb-06 04:34N 59°52' E 030°13'0 0.0
2016-Feb-06 03:34N 59°52' E 030°13'0 0.0
2016-Feb-06 02:33N 59°52' E 030°13'0 0.0
2016-Feb-06 01:33N 59°52' E 030°13'0 0.0
2016-Feb-06 00:33N 59°52' E 030°13'0 0.2
2016-Feb-05 23:33N 59°52' E 030°12'0 0.3
2016-Feb-05 22:34N 59°52' E 030°12'0 0.0
2016-Feb-05 21:34N 59°52' E 030°12'0 0.0
2016-Feb-05 20:33N 59°52' E 030°12'0 0.0
2016-Feb-05 19:34N 59°52' E 030°12'0 0.0
2016-Feb-05 18:33N 59°52' E 030°12'0 0.0
2016-Feb-05 17:33N 59°52' E 030°12'0 0.0
2016-Feb-05 16:33N 59°52' E 030°12'1 0.7
2016-Feb-05 15:33N 59°53' E 030°11'0 0.0
2016-Feb-05 14:33N 59°53' E 030°11'0 0.0
2016-Feb-05 13:33N 59°53' E 030°11'0 0.0
2016-Feb-05 12:33N 59°53' E 030°11'0 0.0
2016-Feb-05 11:33N 59°53' E 030°11'0 0.0
2016-Feb-05 10:33N 59°53' E 030°11'1 0.6
2016-Feb-05 09:33N 59°53' E 030°12'1 0.8
2016-Feb-05 08:34N 59°53' E 030°14'0 0.0
2016-Feb-05 07:34N 59°53' E 030°14'0 0.0
2016-Feb-05 06:34N 59°53' E 030°14'0 0.0
2016-Feb-05 05:34N 59°53' E 030°14'0 0.0
2016-Feb-05 04:33N 59°53' E 030°14'0 0.0
2016-Feb-05 03:33N 59°53' E 030°14'0 0.0
2016-Feb-05 02:33N 59°53' E 030°14'0 0.0
2016-Feb-05 01:33N 59°53' E 030°14'0 0.0
2016-Feb-05 00:33N 59°53' E 030°14'0 0.1
2016-Feb-04 23:33N 59°53' E 030°13'0 0.0
2016-Feb-04 22:33N 59°53' E 030°13'0 0.0
2016-Feb-04 21:33N 59°53' E 030°13'0 0.0
2016-Feb-04 20:33N 59°53' E 030°13'0 0.0
2016-Feb-04 19:33N 59°53' E 030°13'1 1.0
2016-Feb-04 18:34N 59°53' E 030°11'0 0.0
2016-Feb-04 17:33N 59°53' E 030°11'0 0.0
2016-Feb-04 16:33N 59°53' E 030°11'0 0.0
2016-Feb-04 15:33N 59°53' E 030°11'0 0.0
2016-Feb-04 14:33N 59°53' E 030°11'0 0.0
2016-Feb-04 13:34N 59°53' E 030°11'0 0.0
2016-Feb-04 12:33N 59°53' E 030°11'0 0.0
2016-Feb-04 11:33N 59°53' E 030°11'1 1.0
2016-Feb-04 10:33N 59°53' E 030°13'0 0.0
2016-Feb-04 09:33N 59°53' E 030°13'0 0.0
2016-Feb-04 08:33N 59°53' E 030°13'0 0.0
2016-Feb-04 07:33N 59°53' E 030°13'0 0.0
2016-Feb-04 06:34N 59°53' E 030°13'0 0.0
2016-Feb-04 05:33N 59°53' E 030°13'0 0.0
2016-Feb-04 04:33N 59°53' E 030°13'0 0.0
2016-Feb-04 03:33N 59°53' E 030°13'0 0.0
2016-Feb-04 02:33N 59°53' E 030°13'0 0.0
2016-Feb-04 01:33N 59°53' E 030°13'0 0.0
2016-Feb-04 00:34N 59°53' E 030°13'0 0.1
2016-Feb-03 23:34N 59°53' E 030°14'0 0.0
2016-Feb-03 22:34N 59°53' E 030°14'0 0.0
2016-Feb-03 21:33N 59°53' E 030°14'0 0.0
2016-Feb-03 20:33N 59°53' E 030°14'1 0.9
2016-Feb-03 19:34N 59°53' E 030°12'0 0.0
2016-Feb-03 18:33N 59°53' E 030°12'0 0.0
2016-Feb-03 17:33N 59°53' E 030°12'0 0.0
2016-Feb-03 16:33N 59°53' E 030°12'1 0.5
2016-Feb-03 15:33N 59°53' E 030°13'0 0.3
2016-Feb-03 14:33N 59°54' E 030°13'0 0.0
2016-Feb-03 13:33N 59°54' E 030°13'0 0.0
2016-Feb-03 12:33N 59°54' E 030°13'0 0.0
2016-Feb-03 11:33N 59°54' E 030°13'0 0.0
2016-Feb-03 10:34N 59°54' E 030°13'0 0.2
2016-Feb-03 09:33N 59°53' E 030°13'0 0.4
2016-Feb-03 08:33N 59°53' E 030°13'  

Dump ship's entire track history